AKT2801 CYUL-CYSJ
Flight info
| Callsign | AKT2801 |
|---|---|
| Flight time | 0h 42m |
| Altitude | 37000 |
| Route | SUXET DCT NOVUN DCT ESRAM DCT RABIK Q951 ANTOV DCT VITUX |
| Aircraft | B737/M-SDE2E3FGHIRWXY/LB1 |
Departure
| Time | 2026-04-20 02:08 |
|---|---|
| Airport | Montreal / Pierre Elliott Trudeau International Airport (CYUL) |
Arrival
| Time | 2026-04-20 02:50 |
|---|---|
| Airport | Saint John Airport (CYSJ) |
| Time | Latitude | Longitude | Altitude | Speed | Heading |
|---|---|---|---|---|---|
| 2026-04-20 01:54 | 45.45884 | -73.74395 | 115 ft | 0 kts | 205° |
| 2026-04-20 01:56 | 45.45890 | -73.74391 | 111 ft | 4 kts | 205° |
| 2026-04-20 01:56 | 45.45914 | -73.74374 | 113 ft | 4 kts | 211° |
| 2026-04-20 01:56 | 45.45936 | -73.74352 | 113 ft | 4 kts | 221° |
| 2026-04-20 01:56 | 45.45953 | -73.74325 | 114 ft | 4 kts | 258° |
| 2026-04-20 01:57 | 45.45952 | -73.74304 | 111 ft | 1 kts | 305° |
| 2026-04-20 01:57 | 45.45950 | -73.74301 | 111 ft | 0 kts | 305° |
| 2026-04-20 01:58 | 45.45951 | -73.74302 | 111 ft | 1 kts | 305° |
| 2026-04-20 01:59 | 45.45965 | -73.74332 | 111 ft | 7 kts | 304° |
| 2026-04-20 01:59 | 45.46006 | -73.74396 | 114 ft | 10 kts | 314° |
| 2026-04-20 01:59 | 45.46055 | -73.74463 | 115 ft | 10 kts | 320° |
| 2026-04-20 01:59 | 45.46107 | -73.74524 | 115 ft | 9 kts | 323° |
| 2026-04-20 02:00 | 45.46140 | -73.74565 | 115 ft | 9 kts | 310° |
| 2026-04-20 02:00 | 45.46161 | -73.74654 | 115 ft | 9 kts | 268° |
| 2026-04-20 02:00 | 45.46158 | -73.74745 | 115 ft | 9 kts | 268° |
| 2026-04-20 02:00 | 45.46156 | -73.74834 | 113 ft | 9 kts | 267° |
| 2026-04-20 02:01 | 45.46153 | -73.74927 | 115 ft | 10 kts | 267° |
| 2026-04-20 02:01 | 45.46188 | -73.74996 | 113 ft | 9 kts | 343° |
| 2026-04-20 02:01 | 45.46257 | -73.75002 | 113 ft | 11 kts | 358° |
| 2026-04-20 02:01 | 45.46338 | -73.75007 | 115 ft | 13 kts | 358° |
| 2026-04-20 02:02 | 45.46437 | -73.75012 | 114 ft | 15 kts | 358° |
| 2026-04-20 02:02 | 45.46549 | -73.75019 | 113 ft | 17 kts | 358° |
| 2026-04-20 02:02 | 45.46663 | -73.75027 | 113 ft | 16 kts | 356° |
| 2026-04-20 02:02 | 45.46775 | -73.75032 | 114 ft | 16 kts | 358° |
| 2026-04-20 02:03 | 45.46881 | -73.75039 | 113 ft | 15 kts | 357° |
| 2026-04-20 02:03 | 45.46972 | -73.74980 | 114 ft | 14 kts | 44° |
| 2026-04-20 02:03 | 45.47044 | -73.74884 | 115 ft | 14 kts | 41° |
| 2026-04-20 02:03 | 45.47113 | -73.74795 | 114 ft | 13 kts | 43° |
| 2026-04-20 02:04 | 45.47180 | -73.74707 | 113 ft | 13 kts | 43° |
| 2026-04-20 02:04 | 45.47244 | -73.74623 | 112 ft | 12 kts | 43° |
| 2026-04-20 02:04 | 45.47308 | -73.74540 | 115 ft | 12 kts | 43° |
| 2026-04-20 02:04 | 45.47371 | -73.74458 | 114 ft | 14 kts | 43° |
| 2026-04-20 02:05 | 45.47453 | -73.74351 | 113 ft | 17 kts | 42° |
| 2026-04-20 02:05 | 45.47542 | -73.74234 | 113 ft | 18 kts | 42° |
| 2026-04-20 02:05 | 45.47634 | -73.74115 | 113 ft | 18 kts | 42° |
| 2026-04-20 02:05 | 45.47731 | -73.73988 | 114 ft | 19 kts | 45° |
| 2026-04-20 02:06 | 45.47826 | -73.73861 | 114 ft | 19 kts | 41° |
| 2026-04-20 02:06 | 45.47919 | -73.73737 | 113 ft | 18 kts | 44° |
| 2026-04-20 02:06 | 45.48011 | -73.73619 | 114 ft | 17 kts | 43° |
| 2026-04-20 02:06 | 45.48100 | -73.73500 | 113 ft | 18 kts | 43° |
| 2026-04-20 02:07 | 45.48204 | -73.73400 | 113 ft | 18 kts | 354° |
| 2026-04-20 02:07 | 45.48274 | -73.73531 | 114 ft | 18 kts | 278° |
| 2026-04-20 02:07 | 45.48251 | -73.73697 | 113 ft | 17 kts | 223° |
| 2026-04-20 02:07 | 45.48106 | -73.73888 | 117 ft | 58 kts | 222° |
| 2026-04-20 02:08 | 45.47614 | -73.74527 | 113 ft | 130 kts | 222° |
| 2026-04-20 02:08 | 45.46806 | -73.75606 | 257 ft | 176 kts | 223° |
| 2026-04-20 02:08 | 45.45876 | -73.76766 | 1189 ft | 171 kts | 224° |
| 2026-04-20 02:08 | 45.44979 | -73.77715 | 2427 ft | 150 kts | 221° |
| 2026-04-20 02:09 | 45.44117 | -73.78578 | 3109 ft | 163 kts | 221° |
| 2026-04-20 02:09 | 45.43129 | -73.79652 | 3448 ft | 194 kts | 222° |
| 2026-04-20 02:09 | 45.41821 | -73.80523 | 3687 ft | 230 kts | 187° |
| 2026-04-20 02:09 | 45.40219 | -73.79885 | 4197 ft | 255 kts | 149° |
| 2026-04-20 02:10 | 45.39062 | -73.77874 | 4709 ft | 277 kts | 117° |
| 2026-04-20 02:10 | 45.38288 | -73.75276 | 5612 ft | 285 kts | 113° |
| 2026-04-20 02:10 | 45.35796 | -73.66388 | 8852 ft | 297 kts | 114° |
| 2026-04-20 02:10 | 45.32423 | -73.55131 | 12097 ft | 325 kts | 116° |
| 2026-04-20 02:11 | 45.28543 | -73.42548 | 14813 ft | 364 kts | 116° |
| 2026-04-20 02:11 | 45.24363 | -73.29025 | 18412 ft | 375 kts | 118° |
| 2026-04-20 02:11 | 45.20482 | -73.15050 | 21322 ft | 402 kts | 106° |
| 2026-04-20 02:11 | 45.21410 | -72.98349 | 23906 ft | 446 kts | 80° |
| 2026-04-20 02:12 | 45.27731 | -72.82485 | 25922 ft | 473 kts | 68° |
| 2026-04-20 02:12 | 45.29748 | -72.64771 | 27553 ft | 462 kts | 100° |
| 2026-04-20 02:12 | 45.30556 | -72.45984 | 29392 ft | 484 kts | 94° |
| 2026-04-20 02:12 | 45.31779 | -72.26562 | 30805 ft | 494 kts | 96° |
| 2026-04-20 02:13 | 45.32770 | -72.07038 | 32107 ft | 502 kts | 96° |
| 2026-04-20 02:13 | 45.33770 | -71.87093 | 33560 ft | 502 kts | 96° |
| 2026-04-20 02:13 | 45.35722 | -71.67155 | 34697 ft | 514 kts | 89° |
| 2026-04-20 02:13 | 45.38099 | -71.47366 | 35875 ft | 509 kts | 90° |
| 2026-04-20 02:14 | 45.40209 | -71.27200 | 36827 ft | 511 kts | 90° |
| 2026-04-20 02:14 | 45.41663 | -71.13200 | 37119 ft | 518 kts | 90° |
| 2026-04-20 02:14 | 45.42718 | -71.03079 | 36895 ft | 509 kts | 92° |
| 2026-04-20 02:15 | 45.42992 | -70.98134 | 36943 ft | 495 kts | 98° |
| 2026-04-20 02:15 | 45.43067 | -70.93231 | 36928 ft | 494 kts | 100° |
| 2026-04-20 02:15 | 45.43072 | -70.83404 | 36919 ft | 495 kts | 101° |
| 2026-04-20 02:16 | 45.43079 | -70.73625 | 36918 ft | 497 kts | 100° |
| 2026-04-20 02:16 | 45.43131 | -70.63743 | 36918 ft | 500 kts | 100° |
| 2026-04-20 02:17 | 45.43201 | -70.53846 | 36897 ft | 499 kts | 100° |
| 2026-04-20 02:17 | 45.43265 | -70.43918 | 36902 ft | 500 kts | 100° |
| 2026-04-20 02:18 | 45.43316 | -70.34059 | 36876 ft | 501 kts | 101° |
| 2026-04-20 02:18 | 45.43359 | -70.24136 | 36877 ft | 501 kts | 101° |
| 2026-04-20 02:19 | 45.43394 | -70.14213 | 36858 ft | 499 kts | 102° |
| 2026-04-20 02:19 | 45.43418 | -70.04267 | 36859 ft | 500 kts | 102° |
| 2026-04-20 02:20 | 45.43433 | -69.94390 | 36864 ft | 499 kts | 102° |
| 2026-04-20 02:20 | 45.43441 | -69.84513 | 36857 ft | 499 kts | 102° |
| 2026-04-20 02:21 | 45.43437 | -69.71363 | 36839 ft | 498 kts | 102° |
| 2026-04-20 02:22 | 45.43422 | -69.59886 | 36840 ft | 497 kts | 102° |
| 2026-04-20 02:22 | 45.43404 | -69.51641 | 36837 ft | 497 kts | 102° |
| 2026-04-20 02:23 | 45.43374 | -69.41826 | 36844 ft | 497 kts | 102° |
| 2026-04-20 02:23 | 45.43336 | -69.32017 | 36824 ft | 496 kts | 103° |
| 2026-04-20 02:24 | 45.43290 | -69.22167 | 36841 ft | 496 kts | 103° |
| 2026-04-20 02:24 | 45.43235 | -69.12371 | 36848 ft | 496 kts | 103° |
| 2026-04-20 02:25 | 45.43171 | -69.02505 | 36851 ft | 497 kts | 103° |
| 2026-04-20 02:25 | 45.43098 | -68.92676 | 36806 ft | 496 kts | 104° |
| 2026-04-20 02:26 | 45.43020 | -68.82844 | 36848 ft | 495 kts | 104° |
| 2026-04-20 02:26 | 45.42932 | -68.73006 | 36854 ft | 495 kts | 104° |
| 2026-04-20 02:27 | 45.42835 | -68.63218 | 36848 ft | 495 kts | 104° |
| 2026-04-20 02:27 | 45.42728 | -68.53387 | 36546 ft | 499 kts | 105° |
| 2026-04-20 02:27 | 45.42666 | -68.48449 | 35955 ft | 501 kts | 105° |
| 2026-04-20 02:28 | 45.42609 | -68.43504 | 35329 ft | 500 kts | 105° |
| 2026-04-20 02:28 | 45.42550 | -68.38494 | 34616 ft | 501 kts | 106° |
| 2026-04-20 02:28 | 45.42488 | -68.33544 | 33892 ft | 503 kts | 107° |
| 2026-04-20 02:28 | 45.42422 | -68.28593 | 33045 ft | 505 kts | 106° |
| 2026-04-20 02:29 | 45.42354 | -68.23570 | 32403 ft | 502 kts | 106° |
| 2026-04-20 02:29 | 45.42291 | -68.18607 | 31868 ft | 497 kts | 105° |
| 2026-04-20 02:29 | 45.42229 | -68.13791 | 31248 ft | 493 kts | 105° |
| 2026-04-20 02:29 | 45.42163 | -68.08892 | 30787 ft | 487 kts | 105° |
| 2026-04-20 02:30 | 45.42093 | -68.04095 | 30268 ft | 483 kts | 105° |
| 2026-04-20 02:30 | 45.42018 | -67.99339 | 29748 ft | 479 kts | 105° |
| 2026-04-20 02:30 | 45.41940 | -67.94623 | 29144 ft | 475 kts | 105° |
| 2026-04-20 02:30 | 45.41863 | -67.89932 | 28596 ft | 469 kts | 105° |
| 2026-04-20 02:31 | 45.41787 | -67.85346 | 28059 ft | 463 kts | 105° |
| 2026-04-20 02:31 | 45.41709 | -67.80754 | 27519 ft | 458 kts | 105° |
| 2026-04-20 02:31 | 45.41629 | -67.76252 | 26986 ft | 453 kts | 105° |
| 2026-04-20 02:31 | 45.41550 | -67.71823 | 26407 ft | 447 kts | 105° |
| 2026-04-20 02:32 | 45.41470 | -67.67397 | 25948 ft | 440 kts | 105° |
| 2026-04-20 02:32 | 45.41388 | -67.63091 | 25439 ft | 435 kts | 105° |
| 2026-04-20 02:32 | 45.41305 | -67.58816 | 24941 ft | 431 kts | 105° |
| 2026-04-20 02:32 | 45.41220 | -67.54542 | 24426 ft | 426 kts | 105° |
| 2026-04-20 02:33 | 45.41135 | -67.50369 | 23924 ft | 422 kts | 105° |
| 2026-04-20 02:33 | 45.41048 | -67.46172 | 23422 ft | 419 kts | 105° |
| 2026-04-20 02:33 | 45.40961 | -67.42055 | 22826 ft | 416 kts | 105° |
| 2026-04-20 02:33 | 45.40875 | -67.37974 | 22272 ft | 411 kts | 105° |
| 2026-04-20 02:34 | 45.40788 | -67.33905 | 21756 ft | 406 kts | 105° |
| 2026-04-20 02:34 | 45.40702 | -67.29880 | 21227 ft | 401 kts | 105° |
| 2026-04-20 02:34 | 45.40617 | -67.25958 | 20767 ft | 395 kts | 105° |
| 2026-04-20 02:34 | 45.40530 | -67.22092 | 20280 ft | 392 kts | 105° |
| 2026-04-20 02:35 | 45.40439 | -67.18200 | 19800 ft | 389 kts | 105° |
| 2026-04-20 02:35 | 45.40349 | -67.14395 | 19316 ft | 387 kts | 105° |
| 2026-04-20 02:35 | 45.40256 | -67.10548 | 18825 ft | 385 kts | 105° |
| 2026-04-20 02:35 | 45.40164 | -67.06760 | 18332 ft | 384 kts | 104° |
| 2026-04-20 02:36 | 45.40070 | -67.02952 | 17794 ft | 383 kts | 104° |
| 2026-04-20 02:36 | 45.39977 | -66.99192 | 17278 ft | 381 kts | 104° |
| 2026-04-20 02:36 | 45.39888 | -66.95452 | 16989 ft | 372 kts | 104° |
| 2026-04-20 02:36 | 45.39800 | -66.91798 | 16550 ft | 369 kts | 104° |
| 2026-04-20 02:37 | 45.39708 | -66.88186 | 16090 ft | 365 kts | 104° |
| 2026-04-20 02:37 | 45.39614 | -66.84591 | 15636 ft | 363 kts | 104° |
| 2026-04-20 02:37 | 45.39517 | -66.80978 | 15175 ft | 362 kts | 104° |
| 2026-04-20 02:37 | 45.39422 | -66.77412 | 14712 ft | 361 kts | 104° |
| 2026-04-20 02:38 | 45.39325 | -66.73826 | 14229 ft | 360 kts | 104° |
| 2026-04-20 02:38 | 45.39228 | -66.70278 | 13763 ft | 359 kts | 104° |
| 2026-04-20 02:38 | 45.39131 | -66.66745 | 13234 ft | 359 kts | 104° |
| 2026-04-20 02:38 | 45.39033 | -66.63202 | 12728 ft | 356 kts | 103° |
| 2026-04-20 02:39 | 45.38935 | -66.59670 | 12247 ft | 354 kts | 103° |
| 2026-04-20 02:39 | 45.38838 | -66.56194 | 11755 ft | 352 kts | 103° |
| 2026-04-20 02:39 | 45.38739 | -66.52740 | 11281 ft | 350 kts | 103° |
| 2026-04-20 02:39 | 45.38639 | -66.49252 | 10774 ft | 348 kts | 102° |
| 2026-04-20 02:40 | 45.38540 | -66.45840 | 10431 ft | 342 kts | 102° |
| 2026-04-20 02:40 | 45.38645 | -66.42498 | 10286 ft | 343 kts | 85° |
| 2026-04-20 02:40 | 45.39307 | -66.39294 | 10221 ft | 332 kts | 80° |
| 2026-04-20 02:40 | 45.39999 | -66.36212 | 10046 ft | 324 kts | 80° |
| 2026-04-20 02:41 | 45.40675 | -66.33197 | 9786 ft | 319 kts | 80° |
| 2026-04-20 02:41 | 45.41346 | -66.30160 | 9410 ft | 318 kts | 81° |
| 2026-04-20 02:41 | 45.41996 | -66.27168 | 9053 ft | 317 kts | 80° |
| 2026-04-20 02:41 | 45.42641 | -66.24181 | 8670 ft | 317 kts | 80° |
| 2026-04-20 02:42 | 45.43281 | -66.21201 | 8323 ft | 315 kts | 79° |
| 2026-04-20 02:42 | 45.43921 | -66.18212 | 7942 ft | 314 kts | 79° |
| 2026-04-20 02:42 | 45.44558 | -66.15232 | 7602 ft | 313 kts | 79° |
| 2026-04-20 02:42 | 45.45186 | -66.12282 | 7235 ft | 312 kts | 79° |
| 2026-04-20 02:43 | 45.45812 | -66.09340 | 6869 ft | 310 kts | 79° |
| 2026-04-20 02:43 | 45.46441 | -66.06378 | 6520 ft | 309 kts | 79° |
| 2026-04-20 02:43 | 45.47058 | -66.03462 | 6174 ft | 308 kts | 79° |
| 2026-04-20 02:43 | 45.47671 | -66.00564 | 5806 ft | 306 kts | 78° |
| 2026-04-20 02:44 | 45.48287 | -65.97653 | 5433 ft | 302 kts | 80° |
| 2026-04-20 02:44 | 45.48878 | -65.94869 | 5296 ft | 292 kts | 80° |
| 2026-04-20 02:44 | 45.49458 | -65.92120 | 5135 ft | 284 kts | 80° |
| 2026-04-20 02:44 | 45.50021 | -65.89448 | 4995 ft | 275 kts | 80° |
| 2026-04-20 02:45 | 45.50468 | -65.86889 | 4872 ft | 257 kts | 95° |
| 2026-04-20 02:45 | 45.50204 | -65.84506 | 4638 ft | 231 kts | 120° |
| 2026-04-20 02:45 | 45.49476 | -65.82573 | 4415 ft | 215 kts | 129° |
| 2026-04-20 02:45 | 45.48710 | -65.80774 | 4134 ft | 210 kts | 128° |
| 2026-04-20 02:46 | 45.47965 | -65.79029 | 3903 ft | 203 kts | 127° |
| 2026-04-20 02:46 | 45.47142 | -65.77480 | 3632 ft | 191 kts | 149° |
| 2026-04-20 02:46 | 45.45966 | -65.76879 | 3408 ft | 176 kts | 182° |
| 2026-04-20 02:46 | 45.44806 | -65.77223 | 3190 ft | 166 kts | 212° |
| 2026-04-20 02:47 | 45.43801 | -65.78050 | 3024 ft | 169 kts | 214° |
| 2026-04-20 02:47 | 45.42779 | -65.78877 | 2815 ft | 168 kts | 215° |
| 2026-04-20 02:47 | 45.41793 | -65.79666 | 2586 ft | 158 kts | 216° |
| 2026-04-20 02:47 | 45.40838 | -65.80468 | 2400 ft | 161 kts | 217° |
| 2026-04-20 02:48 | 45.39890 | -65.81272 | 2143 ft | 155 kts | 217° |
| 2026-04-20 02:48 | 45.39002 | -65.82030 | 1944 ft | 147 kts | 216° |
| 2026-04-20 02:48 | 45.38142 | -65.82760 | 1774 ft | 148 kts | 219° |
| 2026-04-20 02:48 | 45.37249 | -65.83524 | 1575 ft | 151 kts | 219° |
| 2026-04-20 02:49 | 45.36355 | -65.84285 | 1380 ft | 147 kts | 219° |
| 2026-04-20 02:49 | 45.35484 | -65.85025 | 1182 ft | 144 kts | 218° |
| 2026-04-20 02:49 | 45.34614 | -65.85766 | 999 ft | 149 kts | 217° |
| 2026-04-20 02:49 | 45.33727 | -65.86567 | 843 ft | 151 kts | 216° |
| 2026-04-20 02:50 | 45.32816 | -65.87325 | 578 ft | 153 kts | 210° |
| 2026-04-20 02:50 | 45.31910 | -65.88059 | 382 ft | 148 kts | 219° |
| 2026-04-20 02:50 | 45.31097 | -65.88756 | 340 ft | 107 kts | 210° |
| 2026-04-20 02:50 | 45.30715 | -65.89082 | 347 ft | 20 kts | 211° |
| 2026-04-20 02:51 | 45.30656 | -65.89153 | 357 ft | 6 kts | 194° |
| 2026-04-20 02:51 | 45.30656 | -65.89118 | 354 ft | 6 kts | 26° |
| 2026-04-20 02:51 | 45.30703 | -65.89084 | 352 ft | 9 kts | 28° |
| 2026-04-20 02:51 | 45.30746 | -65.89050 | 351 ft | 12 kts | 30° |
| 2026-04-20 02:52 | 45.30831 | -65.88979 | 345 ft | 16 kts | 31° |
| 2026-04-20 02:52 | 45.30941 | -65.88888 | 347 ft | 20 kts | 30° |
| 2026-04-20 02:52 | 45.31067 | -65.88780 | 339 ft | 23 kts | 32° |
| 2026-04-20 02:52 | 45.31205 | -65.88664 | 337 ft | 23 kts | 29° |
| 2026-04-20 02:53 | 45.31337 | -65.88548 | 331 ft | 22 kts | 32° |
| 2026-04-20 02:53 | 45.31468 | -65.88438 | 330 ft | 21 kts | 31° |
| 2026-04-20 02:53 | 45.31595 | -65.88334 | 325 ft | 21 kts | 32° |
| 2026-04-20 02:53 | 45.31717 | -65.88230 | 323 ft | 20 kts | 29° |
| 2026-04-20 02:54 | 45.31845 | -65.88156 | 322 ft | 20 kts | 4° |
| 2026-04-20 02:54 | 45.31979 | -65.88162 | 320 ft | 19 kts | 350° |
| 2026-04-20 02:54 | 45.32103 | -65.88217 | 319 ft | 18 kts | 342° |
| 2026-04-20 02:54 | 45.32222 | -65.88271 | 318 ft | 18 kts | 342° |
| 2026-04-20 02:55 | 45.32339 | -65.88255 | 321 ft | 17 kts | 349° |
| 2026-04-20 02:55 | 45.32443 | -65.88327 | 323 ft | 16 kts | 331° |
| 2026-04-20 02:55 | 45.32539 | -65.88410 | 326 ft | 16 kts | 320° |
| 2026-04-20 02:55 | 45.32600 | -65.88536 | 329 ft | 15 kts | 301° |
| 2026-04-20 02:56 | 45.32652 | -65.88663 | 330 ft | 15 kts | 300° |
| 2026-04-20 02:56 | 45.32703 | -65.88783 | 334 ft | 14 kts | 302° |
| 2026-04-20 02:56 | 45.32753 | -65.88900 | 336 ft | 13 kts | 301° |
| 2026-04-20 02:56 | 45.32799 | -65.89011 | 339 ft | 13 kts | 301° |
| 2026-04-20 02:57 | 45.32840 | -65.89109 | 347 ft | 8 kts | 301° |
| 2026-04-20 02:57 | 45.32869 | -65.89094 | 345 ft | 5 kts | 99° |
| 2026-04-20 02:57 | 45.32858 | -65.89072 | 343 ft | 0 kts | 136° |